Time;durP1;ratioP1;P1;durP2;ratioP2;P2;SDS_P1;SDS_P2;PMS_P1;PMS_P2;Temp;Humidity;BMP_temperature;BMP_pressure;BME280_temperature;BME280_humidity;BME280_pressure;Samples;Min_cycle;Max_cycle;Signal;HPM_P1;HPM_P2
2021/12/13 00:01:27;;;;;;;;;2.33;2.33;;;;;-146.25;100.00;57879.81;5076031;27;46487;-68
2021/12/13 00:04:20;;;;;;;;;2.00;1.67;;;;;-146.25;100.00;57879.81;5075151;28;45447;-68
2021/12/13 00:07:12;;;;;;;;;2.00;1.00;;;;;-146.25;100.00;57879.81;5070942;27;45426;-68
2021/12/13 00:09:45;;;;;;;;;1.00;1.00;;;;;-146.25;100.00;57879.81;5077043;28;45407;-71
2021/12/13 00:12:18;;;;;;;;;2.00;2.00;;;;;-146.25;100.00;57879.81;5098722;27;47925;-69
2021/12/13 00:14:52;;;;;;;;;2.00;2.00;;;;;-146.25;100.00;57879.81;5080270;28;45561;-69
2021/12/13 00:17:23;;;;;;;;;2.33;1.00;;;;;-146.25;100.00;57879.81;5078435;28;45588;-69
2021/12/13 00:20:05;;;;;;;;;2.00;1.00;;;;;-146.25;100.00;57879.81;5078692;28;45544;-69
2021/12/13 00:22:38;;;;;;;;;3.00;2.67;;;;;-146.25;100.00;57879.81;5077706;28;46395;-68
2021/12/13 00:25:07;;;;;;;;;3.00;3.00;;;;;-146.25;100.00;57879.81;5077877;27;45254;-69
2021/12/13 00:27:40;;;;;;;;;2.00;2.00;;;;;-146.25;100.00;57879.81;5078051;28;45372;-69
2021/12/13 00:30:22;;;;;;;;;2.00;1.00;;;;;-146.25;100.00;57879.81;5077968;28;45378;-68
2021/12/13 00:33:14;;;;;;;;;3.00;2.67;;;;;-146.25;100.00;57879.81;5077747;27;45312;-69
2021/12/13 00:35:50;;;;;;;;;2.00;2.00;;;;;-146.25;100.00;57879.81;5077986;27;45478;-69
2021/12/13 00:38:21;;;;;;;;;2.00;2.00;;;;;-146.25;100.00;57879.81;5077932;28;45462;-69
2021/12/13 00:41:00;;;;;;;;;4.67;2.00;;;;;-146.25;100.00;57879.81;5078169;28;45292;-69
2021/12/13 00:43:54;;;;;;;;;3.00;2.00;;;;;-146.25;100.00;57879.81;5077707;28;46044;-69
2021/12/13 00:46:24;;;;;;;;;5.00;2.67;;;;;-146.25;100.00;57879.81;5073502;27;45499;-69
2021/12/13 00:48:52;;;;;;;;;3.00;3.00;;;;;-146.25;100.00;57879.81;5077801;28;45508;-69
2021/12/13 00:51:31;;;;;;;;;2.00;2.00;;;;;-146.25;100.00;57879.81;5078054;27;45347;-69
2021/12/13 00:54:23;;;;;;;;;5.00;3.00;;;;;-146.25;100.00;57879.81;5077227;28;45319;-69
2021/12/13 00:57:07;;;;;;;;;2.67;2.00;;;;;-146.25;100.00;57879.81;5072048;27;45480;-69
2021/12/13 00:59:41;;;;;;;;;2.00;2.00;;;;;-146.25;100.00;57879.81;5077613;27;45541;-69
2021/12/13 01:02:27;;;;;;;;;0.00;0.00;;;;;-146.25;100.00;57879.81;5077998;27;45402;-68
2021/12/13 01:05:07;;;;;;;;;4.00;3.67;;;;;-146.25;100.00;57879.81;5077823;27;46313;-68
2021/12/13 01:07:33;;;;;;;;;2.50;1.00;;;;;-146.25;100.00;57879.81;5077485;28;45373;-69
2021/12/13 01:10:26;;;;;;;;;2.00;2.00;;;;;-146.25;100.00;57879.81;5077576;27;45225;-69
2021/12/13 01:12:56;;;;;;;;;2.00;1.00;;;;;-146.25;100.00;57879.81;5077860;28;45452;-69
2021/12/13 01:15:46;;;;;;;;;4.00;2.00;;;;;-146.25;100.00;57879.81;5077445;28;45418;-69
2021/12/13 01:18:31;;;;;;;;;3.00;2.00;;;;;-146.25;100.00;57879.81;5077197;28;45170;-69
2021/12/13 01:21:32;;;;;;;;;3.00;3.00;;;;;-146.25;100.00;57879.81;5077729;27;45298;-69
2021/12/13 01:24:07;;;;;;;;;3.00;2.00;;;;;-146.25;100.00;57879.81;5077772;27;45473;-69
2021/12/13 01:26:49;;;;;;;;;3.00;2.00;;;;;-146.25;100.00;57879.81;5077002;27;45420;-68
2021/12/13 01:29:23;;;;;;;;;2.00;2.00;;;;;-146.25;100.00;57879.81;5077098;27;45376;-69
2021/12/13 01:31:53;;;;;;;;;3.00;2.33;;;;;-146.25;100.00;57879.81;5076975;27;45471;-69
2021/12/13 01:34:22;;;;;;;;;4.33;2.33;;;;;-146.25;100.00;57879.81;5077234;27;45533;-69
2021/12/13 01:37:08;;;;;;;;;2.00;2.00;;;;;-146.25;100.00;57879.81;5076844;27;46201;-69
2021/12/13 01:39:36;;;;;;;;;6.00;3.00;;;;;-146.25;100.00;57879.81;5076982;27;45235;-68
2021/12/13 01:42:10;;;;;;;;;3.00;2.67;;;;;-146.25;100.00;57879.81;5077008;28;45408;-69
2021/12/13 01:44:41;;;;;;;;;3.00;2.00;;;;;-146.25;100.00;57879.81;5077120;27;45316;-69
2021/12/13 01:47:12;;;;;;;;;2.33;1.67;;;;;-146.25;100.00;57879.81;5092023;27;45445;-69
2021/12/13 01:49:41;;;;;;;;;3.33;3.00;;;;;-146.25;100.00;57879.81;5076747;28;45375;-69
2021/12/13 01:52:22;;;;;;;;;4.00;3.00;;;;;-146.25;100.00;57879.81;5076979;27;45478;-69
2021/12/13 01:54:50;;;;;;;;;2.00;2.00;;;;;-146.25;100.00;57879.81;5077058;28;45658;-69
2021/12/13 01:57:27;;;;;;;;;2.67;2.67;;;;;-146.25;100.00;57879.81;5076800;28;46203;-69
2021/12/13 02:00:08;;;;;;;;;3.75;2.75;;;;;-146.25;100.00;57879.81;5076207;27;45355;-68
2021/12/13 02:02:39;;;;;;;;;4.50;3.75;;;;;-146.25;100.00;57879.81;5076824;28;45556;-68
2021/12/13 02:05:06;;;;;;;;;4.00;3.75;;;;;-146.25;100.00;57879.81;5076857;28;45239;-69
2021/12/13 02:07:46;;;;;;;;;5.00;3.00;;;;;-146.25;100.00;57879.81;5076607;28;45441;-68
2021/12/13 02:10:16;;;;;;;;;1.00;1.00;;;;;-146.25;100.00;57879.81;5092332;27;45319;-68
2021/12/13 02:12:45;;;;;;;;;3.00;3.00;;;;;-146.25;100.00;57879.81;5076910;27;45471;-68
2021/12/13 02:17:58;;;;;;;;;4.67;3.00;;;;;-146.25;100.00;57879.81;5076793;28;45531;-68
2021/12/13 02:20:35;;;;;;;;;4.00;3.33;;;;;-146.25;100.00;57879.81;5076606;28;45286;-68
2021/12/13 02:23:01;;;;;;;;;5.00;3.33;;;;;-146.25;100.00;57879.81;5076804;28;45534;-68
2021/12/13 02:25:37;;;;;;;;;2.00;2.00;;;;;-146.25;100.00;57879.81;5079015;27;45504;-68
2021/12/13 02:28:16;;;;;;;;;3.00;3.00;;;;;-146.25;100.00;57879.81;5079948;28;46275;-68
2021/12/13 02:30:55;;;;;;;;;4.00;3.00;;;;;-146.25;100.00;57879.81;5079792;27;45704;-68
2021/12/13 02:33:29;;;;;;;;;3.33;3.00;;;;;-146.25;100.00;57879.81;5079667;28;45475;-68
2021/12/13 02:36:07;;;;;;;;;3.33;3.00;;;;;-146.25;100.00;57879.81;5079748;27;45469;-68
2021/12/13 02:38:33;;;;;;;;;3.33;3.00;;;;;-146.25;100.00;57879.81;5079419;28;45491;-68
2021/12/13 02:41:00;;;;;;;;;2.67;2.00;;;;;-146.25;100.00;57879.81;5079871;28;45495;-68
2021/12/13 02:43:32;;;;;;;;;5.00;3.00;;;;;-146.25;100.00;57879.81;5079729;27;45327;-68
2021/12/13 02:45:59;;;;;;;;;3.67;3.00;;;;;-146.25;100.00;57879.81;5080177;28;45432;-68
2021/12/13 02:48:30;;;;;;;;;3.00;3.00;;;;;-146.25;100.00;57879.81;5079306;28;45426;-68
2021/12/13 02:51:12;;;;;;;;;4.67;3.00;;;;;-146.25;100.00;57879.81;5079246;28;45415;-68
2021/12/13 02:53:50;;;;;;;;;3.00;2.00;;;;;-146.25;100.00;57879.81;5079211;28;45467;-68
2021/12/13 02:56:25;;;;;;;;;3.00;3.00;;;;;-146.25;100.00;57879.81;5079641;27;45309;-69
2021/12/13 02:58:52;;;;;;;;;4.00;3.00;;;;;-146.25;100.00;57879.81;5079231;28;45388;-68
2021/12/13 03:01:44;;;;;;;;;2.67;1.67;;;;;-146.25;100.00;57879.81;5078264;28;45440;-67
2021/12/13 03:04:16;;;;;;;;;4.00;3.00;;;;;-146.25;100.00;57879.81;5076481;27;45860;-67
2021/12/13 03:06:48;;;;;;;;;3.00;3.00;;;;;-146.25;100.00;57879.81;5075261;28;45624;-67
2021/12/13 03:09:22;;;;;;;;;5.00;3.00;;;;;-146.25;100.00;57879.81;5077207;28;45519;-67
2021/12/13 03:11:50;;;;;;;;;4.67;4.00;;;;;-146.25;100.00;57879.81;5075644;28;45476;-68
2021/12/13 03:14:22;;;;;;;;;5.00;3.00;;;;;-146.25;100.00;57879.81;5077406;28;45479;-67
2021/12/13 03:17:08;;;;;;;;;5.00;3.00;;;;;-146.25;100.00;57879.81;5077771;27;45372;-67
2021/12/13 03:19:42;;;;;;;;;4.00;4.00;;;;;-146.25;100.00;57879.81;5077444;28;46171;-68
2021/12/13 03:22:47;;;;;;;;;4.00;3.00;;;;;-146.25;100.00;57879.81;5077216;28;45659;-68
2021/12/13 03:25:17;;;;;;;;;3.67;3.00;;;;;-146.25;100.00;57879.81;5093147;27;45525;-67
2021/12/13 03:28:19;;;;;;;;;3.67;2.67;;;;;-146.25;100.00;57879.81;5075213;28;45385;-68
2021/12/13 03:30:54;;;;;;;;;5.25;3.25;;;;;-146.25;100.00;57879.81;5075084;28;46244;-67
2021/12/13 03:33:29;;;;;;;;;3.33;3.00;;;;;-146.25;100.00;57879.81;5074213;28;45572;-67
2021/12/13 03:35:58;;;;;;;;;3.00;2.25;;;;;-146.25;100.00;57879.81;5076119;28;45420;-68
2021/12/13 03:38:30;;;;;;;;;4.00;3.00;;;;;-146.25;100.00;57879.81;5077361;27;45332;-68
2021/12/13 03:41:05;;;;;;;;;3.00;2.00;;;;;-146.25;100.00;57879.81;5077006;27;46235;-67
2021/12/13 03:43:40;;;;;;;;;4.00;2.00;;;;;-146.25;100.00;57879.81;5077118;28;45530;-68
2021/12/13 03:46:09;;;;;;;;;3.33;3.00;;;;;-146.25;100.00;57879.81;5075210;28;45288;-67
2021/12/13 03:48:41;;;;;;;;;4.33;3.00;;;;;-146.25;100.00;57879.81;5077207;27;45420;-67
2021/12/13 03:51:13;;;;;;;;;2.00;2.00;;;;;-146.25;100.00;57879.81;5074947;28;45429;-67
2021/12/13 03:53:44;;;;;;;;;2.67;2.33;;;;;-146.25;100.00;57879.81;5076829;27;45746;-68
2021/12/13 03:56:13;;;;;;;;;2.00;1.67;;;;;-146.25;100.00;57879.81;5075622;28;45499;-67
2021/12/13 03:58:44;;;;;;;;;3.00;2.33;;;;;-146.25;100.00;57879.81;5077005;27;45488;-68
2021/12/13 04:01:14;;;;;;;;;2.00;2.00;;;;;-146.25;100.00;57879.81;5076759;27;45374;-68
2021/12/13 04:03:43;;;;;;;;;3.00;2.00;;;;;-146.25;100.00;57879.81;5074083;28;45329;-68
2021/12/13 04:06:12;;;;;;;;;4.50;2.00;;;;;-146.25;100.00;57879.81;5076849;27;45493;-68
2021/12/13 04:08:39;;;;;;;;;3.00;2.00;;;;;-146.25;100.00;57879.81;5076819;27;45626;-67
2021/12/13 04:11:08;;;;;;;;;2.67;2.67;;;;;-146.25;100.00;57879.81;5076434;28;46179;-67
2021/12/13 04:13:40;;;;;;;;;3.00;2.33;;;;;-146.25;100.00;57879.81;5076634;27;45353;-68
2021/12/13 04:16:18;;;;;;;;;2.00;2.00;;;;;-146.25;100.00;57879.81;5074664;28;45269;-68
2021/12/13 04:21:49;;;;;;;;;2.00;2.00;;;;;-146.25;100.00;57879.81;5074044;28;45944;-69
2021/12/13 04:24:45;;;;;;;;;2.67;2.00;;;;;-146.25;100.00;57879.81;5075577;28;45374;-68
2021/12/13 04:27:19;;;;;;;;;2.00;1.00;;;;;-146.25;100.00;57879.81;5074691;28;45551;-68
2021/12/13 04:29:49;;;;;;;;;2.00;1.33;;;;;-146.25;100.00;57879.81;5071623;28;45499;-68
2021/12/13 04:32:17;;;;;;;;;2.67;2.00;;;;;-146.25;100.00;57879.81;5075953;28;46135;-68
2021/12/13 04:34:43;;;;;;;;;3.67;2.67;;;;;-146.25;100.00;57879.81;5073726;28;45334;-67
2021/12/13 04:37:17;;;;;;;;;2.67;2.33;;;;;-146.25;100.00;57879.81;5076425;27;45321;-67
2021/12/13 04:39:45;;;;;;;;;4.00;3.00;;;;;-146.25;100.00;57879.81;5074096;28;45580;-68
2021/12/13 04:42:16;;;;;;;;;5.00;3.00;;;;;-146.25;100.00;57879.81;5076140;27;45392;-68
2021/12/13 04:45:07;;;;;;;;;3.00;2.00;;;;;-146.25;100.00;57879.81;5073612;28;45347;-68
2021/12/13 04:47:51;;;;;;;;;2.00;2.00;;;;;-146.25;100.00;57879.81;5074724;28;45523;-68
2021/12/13 04:50:25;;;;;;;;;4.00;2.00;;;;;-146.25;100.00;57879.81;5075677;28;45487;-68
2021/12/13 04:52:52;;;;;;;;;3.00;2.00;;;;;-146.25;100.00;57879.81;5075936;27;45966;-68
2021/12/13 04:55:26;;;;;;;;;2.33;2.00;;;;;-146.25;100.00;57879.81;5075864;27;45376;-68
2021/12/13 04:57:55;;;;;;;;;1.67;1.67;;;;;-146.25;100.00;57879.81;5075988;27;45443;-68
2021/12/13 05:00:24;;;;;;;;;2.00;2.00;;;;;-146.25;100.00;57879.81;5076087;27;45405;-68
2021/12/13 05:02:53;;;;;;;;;3.00;2.00;;;;;-146.25;100.00;57879.81;5075817;27;45522;-68
2021/12/13 05:05:19;;;;;;;;;1.00;1.00;;;;;-146.25;100.00;57879.81;5075750;27;45355;-68
2021/12/13 05:07:48;;;;;;;;;2.33;2.00;;;;;-146.25;100.00;57879.81;5075852;27;45476;-68
2021/12/13 05:10:14;;;;;;;;;2.00;2.00;;;;;-146.25;100.00;57879.81;5075820;27;45366;-68
2021/12/13 05:12:41;;;;;;;;;1.00;1.00;;;;;-146.25;100.00;57879.81;5075608;27;45357;-68
2021/12/13 05:15:12;;;;;;;;;1.67;1.33;;;;;-146.25;100.00;57879.81;5075683;27;45460;-68
2021/12/13 05:17:44;;;;;;;;;2.00;2.00;;;;;-146.25;100.00;57879.81;5075873;27;45322;-68
2021/12/13 05:20:18;;;;;;;;;2.00;2.00;;;;;-146.25;100.00;57879.81;5075930;28;45490;-68
2021/12/13 05:22:50;;;;;;;;;0.67;0.00;;;;;-146.25;100.00;57879.81;5073003;28;46257;-68
2021/12/13 05:25:37;;;;;;;;;3.00;2.00;;;;;-146.25;100.00;57879.81;5075513;27;45384;-68
2021/12/13 05:28:16;;;;;;;;;1.33;1.00;;;;;-146.25;100.00;57879.81;5073386;28;45382;-68
2021/12/13 05:30:59;;;;;;;;;2.00;2.00;;;;;-146.25;100.00;57879.81;5073105;28;45472;-68
2021/12/13 05:33:31;;;;;;;;;2.00;2.00;;;;;-146.25;100.00;57879.81;5072904;28;46326;-68
2021/12/13 05:36:01;;;;;;;;;3.00;2.00;;;;;-146.25;100.00;57879.81;5075287;27;45430;-68
2021/12/13 05:38:35;;;;;;;;;1.67;1.00;;;;;-146.25;100.00;57879.81;5075263;27;45839;-68
2021/12/13 05:41:04;;;;;;;;;2.00;2.00;;;;;-146.25;100.00;57879.81;5075969;27;45531;-68
2021/12/13 05:43:37;;;;;;;;;1.33;1.00;;;;;-146.25;100.00;57879.81;5076437;28;45582;-68
2021/12/13 05:46:05;;;;;;;;;1.33;1.33;;;;;-146.25;100.00;57879.81;5077155;27;45368;-68
2021/12/13 05:48:33;;;;;;;;;2.00;2.00;;;;;-146.25;100.00;57879.81;5077372;27;45437;-68
2021/12/13 05:51:02;;;;;;;;;2.67;2.00;;;;;-146.25;100.00;57879.81;5077402;28;45527;-68
2021/12/13 05:53:32;;;;;;;;;2.00;1.33;;;;;-146.25;100.00;57879.81;5076711;27;46231;-68
2021/12/13 05:56:09;;;;;;;;;3.00;2.00;;;;;-146.25;100.00;57879.81;5076746;28;45358;-68
2021/12/13 05:58:54;;;;;;;;;1.00;1.00;;;;;-146.25;100.00;57879.81;5077033;27;45472;-68
2021/12/13 06:01:40;;;;;;;;;1.67;1.00;;;;;-146.25;100.00;57879.81;5080576;27;45290;-68
2021/12/13 06:04:06;;;;;;;;;2.00;1.00;;;;;-146.25;100.00;57879.81;5079996;27;46006;-68
2021/12/13 06:06:33;;;;;;;;;1.67;1.00;;;;;-146.25;100.00;57879.81;5080429;27;45595;-68
2021/12/13 06:08:59;;;;;;;;;2.00;1.00;;;;;-146.25;100.00;57879.81;5080072;28;45418;-68
2021/12/13 06:11:32;;;;;;;;;1.33;1.33;;;;;-146.25;100.00;57879.81;5096002;27;45587;-67
2021/12/13 06:14:18;;;;;;;;;2.00;1.00;;;;;-146.25;100.00;57879.81;5080290;27;46048;-68
2021/12/13 06:16:53;;;;;;;;;0.00;0.00;;;;;-146.25;100.00;57879.81;5095834;27;45478;-68
2021/12/13 06:19:37;;;;;;;;;2.00;1.00;;;;;-146.25;100.00;57879.81;5080310;27;45252;-68
2021/12/13 06:22:10;;;;;;;;;1.00;1.00;;;;;-146.25;100.00;57879.81;5080454;28;45169;-68
2021/12/13 06:24:51;;;;;;;;;0.67;0.00;;;;;-146.25;100.00;57879.81;5079938;27;45556;-68
2021/12/13 06:27:23;;;;;;;;;0.00;0.00;;;;;-146.25;100.00;57879.81;5080004;27;45871;-68
2021/12/13 06:29:54;;;;;;;;;1.00;0.00;;;;;-146.25;100.00;57879.81;5081659;28;45383;-68
2021/12/13 06:32:21;;;;;;;;;0.33;0.00;;;;;-146.25;100.00;57879.81;5082748;28;45325;-68
2021/12/13 06:34:47;;;;;;;;;2.00;1.00;;;;;-146.25;100.00;57879.81;5080160;27;45433;-68
2021/12/13 06:37:13;;;;;;;;;1.00;1.00;;;;;-146.25;100.00;57879.81;5079995;27;45353;-68
2021/12/13 06:39:40;;;;;;;;;0.00;0.00;;;;;-146.25;100.00;57879.81;5095836;27;45254;-68
2021/12/13 06:42:06;;;;;;;;;0.00;0.00;;;;;-146.25;100.00;57879.81;5080483;28;45401;-68
2021/12/13 06:44:45;;;;;;;;;0.00;0.00;;;;;-146.25;100.00;57879.81;5080188;27;46191;-68
2021/12/13 06:47:18;;;;;;;;;0.67;0.67;;;;;-146.25;100.00;57879.81;5079653;28;45306;-68
2021/12/13 06:49:47;;;;;;;;;1.00;1.00;;;;;-146.25;100.00;57879.81;5079726;27;45388;-68
2021/12/13 06:52:12;;;;;;;;;1.00;1.00;;;;;-146.25;100.00;57879.81;5080018;27;45538;-67
2021/12/13 06:54:58;;;;;;;;;0.33;0.00;;;;;-146.25;100.00;57879.81;5079447;27;45896;-67
2021/12/13 06:57:29;;;;;;;;;4.00;3.67;;;;;-146.25;100.00;57879.81;5079444;27;45422;-68
2021/12/13 07:00:00;;;;;;;;;6.67;4.33;;;;;-146.25;100.00;57879.81;5079518;27;45514;-68
2021/12/13 07:02:50;;;;;;;;;1.00;1.00;;;;;-146.25;100.00;57879.81;5079794;27;45443;-68
2021/12/13 07:05:23;;;;;;;;;1.00;1.00;;;;;-146.25;100.00;57879.81;5079397;27;45352;-68
2021/12/13 07:07:59;;;;;;;;;1.00;1.00;;;;;-146.25;100.00;57879.81;5078810;28;45506;-68
2021/12/13 07:10:57;;;;;;;;;1.00;1.00;;;;;-146.25;100.00;57879.81;5079122;27;45378;-68
2021/12/13 07:13:36;;;;;;;;;2.00;1.00;;;;;-146.25;100.00;57879.81;5079535;27;45345;-68
2021/12/13 07:16:13;;;;;;;;;3.00;3.00;;;;;-146.25;100.00;57879.81;5079083;27;45561;-68
2021/12/13 07:18:49;;;;;;;;;4.33;4.00;;;;;-146.25;100.00;57879.81;5079427;27;45455;-68
2021/12/13 07:21:20;;;;;;;;;1.00;1.00;;;;;-146.25;100.00;57879.81;5095066;27;45327;-68
2021/12/13 07:24:09;;;;;;;;;0.33;0.33;;;;;-146.25;100.00;57879.81;5079201;27;45490;-67
2021/12/13 07:26:41;;;;;;;;;3.67;2.00;;;;;-146.25;100.00;57879.81;5078907;27;46091;-68
2021/12/13 07:29:22;;;;;;;;;0.00;0.00;;;;;-146.25;100.00;57879.81;5078873;27;45364;-70
2021/12/13 07:32:12;;;;;;;;;0.00;0.00;;;;;-146.25;100.00;57879.81;5078687;27;45441;-68
2021/12/13 07:34:55;;;;;;;;;0.67;0.00;;;;;-146.25;100.00;57879.81;5079472;28;45322;-68
2021/12/13 07:37:45;;;;;;;;;0.33;0.00;;;;;-146.25;100.00;57879.81;5078742;27;45464;-67
2021/12/13 07:40:46;;;;;;;;;0.67;0.67;;;;;-146.25;100.00;57879.81;5078722;27;45444;-68
2021/12/13 07:43:27;;;;;;;;;0.67;0.67;;;;;-146.25;100.00;57879.81;5078745;27;45464;-68
2021/12/13 07:46:01;;;;;;;;;0.00;0.00;;;;;-146.25;100.00;57879.81;5078974;27;45492;-68
2021/12/13 07:48:31;;;;;;;;;0.33;0.33;;;;;-146.25;100.00;57879.81;5078135;28;46162;-67
2021/12/13 07:51:11;;;;;;;;;0.00;0.00;;;;;-146.25;100.00;57879.81;5078256;27;45436;-67
2021/12/13 07:53:57;;;;;;;;;1.33;0.00;;;;;-146.25;100.00;57879.81;5078526;27;45421;-67
2021/12/13 07:56:28;;;;;;;;;1.00;1.00;;;;;-146.25;100.00;57879.81;5074423;28;45385;-67
2021/12/13 07:59:04;;;;;;;;;0.33;0.00;;;;;-146.25;100.00;57879.81;5078544;27;46287;-67
2021/12/13 08:01:35;;;;;;;;;0.00;0.00;;;;;-146.25;100.00;57879.81;5078483;27;45488;-68
2021/12/13 08:04:09;;;;;;;;;0.67;0.00;;;;;-146.25;100.00;57879.81;5078330;27;45327;-67
2021/12/13 08:06:57;;;;;;;;;0.00;0.00;;;;;-146.25;100.00;57879.81;5078546;27;45464;-67
2021/12/13 08:09:26;;;;;;;;;0.00;0.00;;;;;-146.25;100.00;57879.81;5078016;27;45290;-67
2021/12/13 08:12:00;;;;;;;;;2.00;0.00;;;;;-146.25;100.00;57879.81;5077618;27;46125;-67
2021/12/13 08:14:30;;;;;;;;;3.00;3.00;;;;;-146.25;100.00;57879.81;5076071;27;45344;-76
2021/12/13 08:16:56;;;;;;;;;1.00;1.00;;;;;-146.25;100.00;57879.81;5076638;27;45421;-75
2021/12/13 08:19:33;;;;;;;;;1.33;1.00;;;;;-146.25;100.00;57879.81;5076371;27;46550;-73
2021/12/13 08:22:04;;;;;;;;;1.00;1.00;;;;;-146.25;100.00;57879.81;5075655;27;45428;-73
2021/12/13 08:24:38;;;;;;;;;0.33;0.00;;;;;-146.25;100.00;57879.81;5074491;28;45334;-71
2021/12/13 08:27:24;;;;;;;;;0.00;0.00;;;;;-146.25;100.00;57879.81;5076622;27;45588;-73
2021/12/13 08:29:50;;;;;;;;;3.33;3.00;;;;;-146.25;100.00;57879.81;5074091;28;46222;-73
2021/12/13 08:32:20;;;;;;;;;1.67;1.00;;;;;-146.25;100.00;57879.81;5076132;27;45465;-72
2021/12/13 08:34:53;;;;;;;;;2.00;1.00;;;;;-146.25;100.00;57879.81;5073622;28;45483;-73
2021/12/13 08:37:45;;;;;;;;;2.50;2.50;;;;;-146.25;100.00;57879.81;5076245;27;45389;-74
2021/12/13 08:40:29;;;;;;;;;3.00;2.33;;;;;-146.25;100.00;57879.81;5074262;28;45406;-72
2021/12/13 08:42:57;;;;;;;;;5.00;4.00;;;;;-146.25;100.00;57879.81;5076959;27;45448;-76
2021/12/13 08:45:35;;;;;;;;;4.00;3.00;;;;;-146.25;100.00;57879.81;5077352;27;45410;-70
2021/12/13 08:48:04;;;;;;;;;3.00;2.00;;;;;-146.25;100.00;57879.81;5077874;27;45370;-69
2021/12/13 08:50:53;;;;;;;;;2.33;2.00;;;;;-146.25;100.00;57879.81;5077328;27;46154;-69
2021/12/13 08:53:36;;;;;;;;;2.00;1.00;;;;;-146.25;100.00;57879.81;5076156;27;45492;-69
2021/12/13 08:56:10;;;;;;;;;4.00;3.00;;;;;-146.25;100.00;57879.81;5076439;27;45499;-69
2021/12/13 08:58:36;;;;;;;;;1.00;0.00;;;;;-146.25;100.00;57879.81;5077787;27;45385;-70
2021/12/13 09:01:09;;;;;;;;;1.00;0.00;;;;;-146.25;100.00;57879.81;5077487;28;45996;-73
2021/12/13 09:03:50;;;;;;;;;1.33;1.33;;;;;-146.25;100.00;57879.81;5077556;27;45384;-71
2021/12/13 09:06:18;;;;;;;;;2.00;2.00;;;;;-146.25;100.00;57879.81;5077066;27;45532;-69
2021/12/13 09:08:47;;;;;;;;;1.00;1.00;;;;;-146.25;100.00;57879.81;5076563;27;46052;-73
2021/12/13 09:11:23;;;;;;;;;2.33;2.00;;;;;-146.25;100.00;57879.81;5076660;28;46134;-71
2021/12/13 09:13:56;;;;;;;;;0.00;0.00;;;;;-146.25;100.00;57879.81;5077184;28;45401;-72
2021/12/13 09:16:29;;;;;;;;;0.00;0.00;;;;;-146.25;100.00;57879.81;5077406;27;45522;-80
2021/12/13 09:19:14;;;;;;;;;0.33;0.00;;;;;-146.25;100.00;57879.81;5075958;27;45377;-71
2021/12/13 09:21:55;;;;;;;;;2.00;2.00;;;;;-146.25;100.00;57879.81;5068191;28;45982;-72
2021/12/13 09:24:39;;;;;;;;;1.00;1.00;;;;;-146.25;100.00;57879.81;5072594;28;45781;-72
2021/12/13 09:27:30;;;;;;;;;0.00;0.00;;;;;-146.25;100.00;57879.81;5072058;28;45436;-72
2021/12/13 09:30:15;;;;;;;;;0.67;0.33;;;;;-146.25;100.00;57879.81;5054071;28;45452;-73
2021/12/13 09:32:50;;;;;;;;;1.00;1.00;;;;;-146.25;100.00;57879.81;5073578;28;46061;-72
2021/12/13 09:35:19;;;;;;;;;1.00;1.00;;;;;-146.25;100.00;57879.81;5074325;28;45443;-72
2021/12/13 09:37:45;;;;;;;;;4.00;4.00;;;;;-146.25;100.00;57879.81;5078735;27;45338;-72
2021/12/13 09:40:13;;;;;;;;;2.00;2.00;;;;;-146.25;100.00;57879.81;5078909;27;46568;-72
2021/12/13 09:42:56;;;;;;;;;2.33;2.00;;;;;-146.25;100.00;57879.81;5075615;28;45560;-73
2021/12/13 09:45:34;;;;;;;;;2.00;2.00;;;;;-146.25;100.00;57879.81;5080339;27;45226;-78
2021/12/13 09:48:15;;;;;;;;;2.00;1.00;;;;;-146.25;100.00;57879.81;5080133;28;46054;-76
2021/12/13 09:50:42;;;;;;;;;3.00;3.00;;;;;-146.25;100.00;57879.81;5079036;28;45593;-77
2021/12/13 09:53:09;;;;;;;;;2.67;2.67;;;;;-146.25;100.00;57879.81;5079964;27;46339;-77
2021/12/13 09:55:47;;;;;;;;;3.00;2.00;;;;;-146.25;100.00;57879.81;5080313;27;45471;-78
2021/12/13 09:58:22;;;;;;;;;2.33;2.00;;;;;-146.25;100.00;57879.81;5080754;27;45341;-77
2021/12/13 10:00:55;;;;;;;;;1.00;1.00;;;;;-146.25;100.00;57879.81;5079283;27;45373;-76
2021/12/13 10:03:30;;;;;;;;;2.00;1.00;;;;;-146.25;100.00;57879.81;5076467;28;45385;-77
2021/12/13 10:06:04;;;;;;;;;0.33;0.33;;;;;-146.25;100.00;57879.81;5075899;28;45498;-76
2021/12/13 10:08:39;;;;;;;;;0.00;0.00;;;;;-146.25;100.00;57879.81;5078602;27;45538;-70
2021/12/13 10:11:10;;;;;;;;;4.00;3.67;;;;;-146.25;100.00;57879.81;5075340;28;45515;-71
2021/12/13 10:13:38;;;;;;;;;3.33;1.00;;;;;-146.25;100.00;57879.81;5076382;28;45476;-71
2021/12/13 10:16:09;;;;;;;;;1.00;1.00;;;;;-146.25;100.00;57879.81;5078469;27;45433;-67
2021/12/13 10:18:39;;;;;;;;;0.67;0.67;;;;;-146.25;100.00;57879.81;5076245;28;45358;-68
2021/12/13 10:21:19;;;;;;;;;2.00;2.00;;;;;-146.25;100.00;57879.81;5078634;27;45462;-70
2021/12/13 10:23:50;;;;;;;;;1.33;1.00;;;;;-146.25;100.00;57879.81;5077376;28;46296;-67
2021/12/13 10:26:18;;;;;;;;;1.00;1.00;;;;;-146.25;100.00;57879.81;5075876;28;45451;-68
2021/12/13 10:28:56;;;;;;;;;2.33;2.33;;;;;-146.25;100.00;57879.81;5078630;27;45428;-69
2021/12/13 10:31:29;;;;;;;;;0.33;0.33;;;;;-146.25;100.00;57879.81;5076194;28;45425;-69
2021/12/13 10:33:57;;;;;;;;;1.00;0.00;;;;;-146.25;100.00;57879.81;5077933;27;45433;-70
2021/12/13 10:36:27;;;;;;;;;0.00;0.00;;;;;-146.25;100.00;57879.81;5078997;27;45181;-70
2021/12/13 10:38:58;;;;;;;;;0.00;0.00;;;;;-146.25;100.00;57879.81;5079232;27;45527;-70
2021/12/13 10:41:45;;;;;;;;;0.00;0.00;;;;;-146.25;100.00;57879.81;5080105;27;45243;-69
2021/12/13 10:44:17;;;;;;;;;0.00;0.00;;;;;-146.25;100.00;57879.81;5079326;27;46340;-70
2021/12/13 10:46:47;;;;;;;;;1.00;1.00;;;;;-146.25;100.00;57879.81;5079154;27;45444;-70
2021/12/13 10:49:19;;;;;;;;;0.00;0.00;;;;;-146.25;100.00;57879.81;5079985;27;45311;-70
2021/12/13 10:51:57;;;;;;;;;0.00;0.00;;;;;-146.25;100.00;57879.81;5080062;27;45239;-70
2021/12/13 10:54:32;;;;;;;;;1.33;1.33;;;;;-146.25;100.00;57879.81;5079378;27;45529;-70
2021/12/13 10:57:05;;;;;;;;;1.67;1.00;;;;;-146.25;100.00;57879.81;5079563;27;45528;-70
2021/12/13 10:59:34;;;;;;;;;1.00;1.00;;;;;-146.25;100.00;57879.81;5079767;27;45428;-70
2021/12/13 11:02:11;;;;;;;;;1.00;1.00;;;;;-146.25;100.00;57879.81;5079655;27;45621;-74
2021/12/13 11:04:45;;;;;;;;;1.00;0.67;;;;;-146.25;100.00;57879.81;5079059;27;46210;-74
2021/12/13 11:07:12;;;;;;;;;1.33;0.00;;;;;-146.25;100.00;57879.81;5079250;27;45461;-75
2021/12/13 11:09:41;;;;;;;;;0.00;0.00;;;;;-146.25;100.00;57879.81;5078902;27;45494;-70
2021/12/13 11:12:15;;;;;;;;;0.00;0.00;;;;;-146.25;100.00;57879.81;5077710;27;46038;-74
2021/12/13 11:14:44;;;;;;;;;1.00;1.00;;;;;-146.25;100.00;57879.81;5077210;27;45513;-74
2021/12/13 11:17:15;;;;;;;;;1.00;0.00;;;;;-146.25;100.00;57879.81;5071324;27;45437;-72
2021/12/13 11:19:47;;;;;;;;;2.67;2.33;;;;;-146.25;100.00;57879.81;5070552;27;45920;-72
2021/12/13 11:22:20;;;;;;;;;5.00;4.00;;;;;-146.25;100.00;57879.81;5074321;27;45355;-71
2021/12/13 11:24:51;;;;;;;;;4.00;4.00;;;;;-146.25;100.00;57879.81;5074522;28;46229;-70
2021/12/13 11:27:30;;;;;;;;;6.00;5.00;;;;;-146.25;100.00;57879.81;5076547;27;45497;-71
2021/12/13 11:30:00;;;;;;;;;2.00;2.00;;;;;-146.25;100.00;57879.81;5074836;28;45363;-72
2021/12/13 11:32:34;;;;;;;;;1.67;1.00;;;;;-146.25;100.00;57879.81;5075311;27;45552;-71
2021/12/13 11:35:15;;;;;;;;;1.00;0.00;;;;;-146.25;100.00;57879.81;5075989;27;45538;-71
2021/12/13 11:38:26;;;;;;;;;1.33;1.00;;;;;-146.25;100.00;57879.81;5072451;28;45354;-71
2021/12/13 11:41:20;;;;;;;;;0.00;0.00;;;;;-146.25;100.00;57879.81;5073965;28;45277;-71
2021/12/13 11:44:04;;;;;;;;;0.67;0.67;;;;;-146.25;100.00;57879.81;5076669;28;45516;-71
2021/12/13 11:47:26;;;;;;;;;0.00;0.00;;;;;-146.25;100.00;57879.81;5073460;28;45966;-70
2021/12/13 11:50:34;;;;;;;;;0.00;0.00;;;;;-146.25;100.00;57879.81;5030827;28;45650;-68
2021/12/13 11:53:33;;;;;;;;;0.00;0.00;;;;;-146.25;100.00;57879.81;5010260;28;45502;-68